Time;durP1;ratioP1;P1;durP2;ratioP2;P2;SDS_P1;SDS_P2;PMS_P1;PMS_P2;Temp;Humidity;BMP_temperature;BMP_pressure;BME280_temperature;BME280_humidity;BME280_pressure;Samples;Min_cycle;Max_cycle;Signal;HPM_P1;HPM_P2
2023/08/16 00:00:08;;;;;;;7.83;7.23;;;25.70;79.30;;;;;;4861593;29;20485;-84
2023/08/16 00:02:37;;;;;;;8.70;7.90;;;25.70;79.40;;;;;;4860598;29;20508;-85
2023/08/16 00:05:08;;;;;;;8.70;7.90;;;25.50;79.40;;;;;;4860484;29;20983;-84
2023/08/16 00:07:36;;;;;;;7.73;7.03;;;25.40;79.60;;;;;;4853890;29;20504;-84
2023/08/16 00:10:11;;;;;;;6.73;6.23;;;25.40;79.70;;;;;;4860998;29;20524;-84
2023/08/16 00:12:39;;;;;;;8.20;7.43;;;25.30;79.80;;;;;;4858174;29;20458;-84
2023/08/16 00:15:08;;;;;;;8.80;8.20;;;25.30;79.80;;;;;;4857311;29;20460;-84
2023/08/16 00:17:37;;;;;;;8.77;7.37;;;25.30;79.90;;;;;;4860619;29;20471;-84
2023/08/16 00:20:10;;;;;;;7.50;6.80;;;25.30;80.20;;;;;;4857266;29;20478;-84
2023/08/16 00:22:38;;;;;;;7.57;6.97;;;25.30;79.90;;;;;;4859119;29;20904;-84
2023/08/16 00:25:07;;;;;;;7.90;7.30;;;25.30;80.00;;;;;;4857592;29;20448;-84
2023/08/16 00:27:36;;;;;;;8.40;7.70;;;25.30;79.70;;;;;;4856333;29;20514;-84
2023/08/16 00:30:06;;;;;;;7.23;6.63;;;25.30;79.70;;;;;;4851804;29;20475;-84
2023/08/16 00:32:34;;;;;;;6.90;6.40;;;25.30;79.80;;;;;;4852483;29;20474;-84
2023/08/16 00:35:03;;;;;;;10.20;7.80;;;25.20;79.80;;;;;;4865810;29;20475;-84
2023/08/16 00:37:32;;;;;;;10.73;7.83;;;25.10;79.70;;;;;;4854812;29;20966;-84
2023/08/16 00:40:03;;;;;;;7.43;6.83;;;25.00;79.90;;;;;;4848654;29;20484;-84
2023/08/16 00:42:31;;;;;;;7.80;6.97;;;25.00;80.10;;;;;;4858510;29;20488;-85
2023/08/16 00:44:59;;;;;;;7.37;6.70;;;24.90;80.40;;;;;;4860135;29;20864;-84
2023/08/16 00:47:28;;;;;;;7.40;6.77;;;24.90;80.20;;;;;;4858927;29;20479;-84
2023/08/16 00:49:56;;;;;;;6.80;6.20;;;25.00;80.00;;;;;;4859227;29;20495;-84
2023/08/16 00:52:25;;;;;;;7.70;7.10;;;25.00;80.00;;;;;;4858254;29;20469;-85
2023/08/16 00:54:55;;;;;;;7.10;6.50;;;25.10;79.90;;;;;;4859259;29;20472;-84
2023/08/16 00:57:24;;;;;;;7.13;6.63;;;25.00;80.10;;;;;;4857067;29;20901;-84
2023/08/16 00:59:52;;;;;;;7.30;6.60;;;25.00;80.30;;;;;;4859147;29;20487;-84
2023/08/16 01:02:23;;;;;;;7.57;6.97;;;24.90;80.20;;;;;;4859261;29;21005;-84
2023/08/16 01:04:51;;;;;;;8.10;7.40;;;25.00;80.00;;;;;;4857135;29;20508;-84
2023/08/16 01:07:20;;;;;;;9.77;7.90;;;24.80;80.30;;;;;;4856658;29;20475;-84
2023/08/16 01:09:48;;;;;;;9.00;7.83;;;24.80;80.50;;;;;;4863447;29;20823;-84
2023/08/16 01:12:25;;;;;;;7.73;7.13;;;24.90;80.30;;;;;;4856706;29;20574;-84
2023/08/16 01:14:58;;;;;;;10.63;7.60;;;24.90;80.20;;;;;;4853457;29;20610;-84
2023/08/16 01:17:27;;;;;;;8.20;7.50;;;25.00;80.00;;;;;;4853996;29;20555;-84
2023/08/16 01:19:57;;;;;;;8.97;8.10;;;25.00;79.80;;;;;;4859210;29;20486;-84
2023/08/16 01:22:38;;;;;;;8.03;6.63;;;24.90;79.80;;;;;;4856786;29;20474;-84
2023/08/16 01:25:14;;;;;;;6.73;6.23;;;24.80;79.70;;;;;;4859822;29;20466;-84
2023/08/16 01:27:44;;;;;;;8.40;7.77;;;24.70;80.00;;;;;;4859114;29;20583;-84
2023/08/16 01:30:14;;;;;;;6.77;6.27;;;24.70;80.00;;;;;;4859582;29;20940;-84
2023/08/16 01:32:42;;;;;;;9.23;8.50;;;24.60;80.30;;;;;;4858055;29;20964;-85
2023/08/16 01:35:11;;;;;;;7.90;7.30;;;24.60;80.40;;;;;;4854965;29;20962;-84
2023/08/16 01:37:39;;;;;;;7.07;6.50;;;24.50;79.80;;;;;;4839916;29;20476;-84
2023/08/16 01:40:09;;;;;;;8.00;7.33;;;24.40;80.50;;;;;;4843835;29;20491;-84
2023/08/16 01:42:43;;;;;;;6.50;6.00;;;24.40;80.40;;;;;;4855855;29;20463;-84
2023/08/16 01:45:15;;;;;;;6.87;6.37;;;24.30;80.60;;;;;;4859843;29;20447;-84
2023/08/16 01:47:43;;;;;;;7.30;6.70;;;24.20;80.70;;;;;;4859087;29;20451;-84
2023/08/16 01:50:12;;;;;;;6.50;6.10;;;24.20;81.20;;;;;;4858818;29;20541;-85
2023/08/16 01:52:41;;;;;;;6.90;6.30;;;24.20;81.30;;;;;;4858507;29;20447;-85
2023/08/16 01:55:10;;;;;;;7.00;6.20;;;24.30;81.30;;;;;;4858499;29;20566;-84
2023/08/16 01:57:38;;;;;;;8.00;6.10;;;24.30;81.30;;;;;;4859102;29;20470;-84
2023/08/16 02:00:09;;;;;;;8.83;6.50;;;24.30;81.40;;;;;;4857587;29;20549;-84
2023/08/16 02:02:43;;;;;;;8.00;7.30;;;24.40;81.20;;;;;;4858398;29;20494;-84
2023/08/16 02:05:11;;;;;;;6.83;6.20;;;24.40;81.00;;;;;;4851336;29;20486;-85
2023/08/16 02:07:40;;;;;;;6.60;6.10;;;24.40;80.90;;;;;;4849380;29;20467;-85
2023/08/16 02:10:08;;;;;;;7.93;7.13;;;24.40;80.90;;;;;;4858345;29;20470;-84
2023/08/16 02:12:36;;;;;;;7.10;6.50;;;24.40;80.80;;;;;;4853142;29;20470;-84
2023/08/16 02:15:05;;;;;;;6.97;6.17;;;24.40;80.80;;;;;;4865337;29;20477;-84
2023/08/16 02:17:34;;;;;;;7.03;6.43;;;24.30;80.60;;;;;;4861077;29;20478;-84
2023/08/16 02:20:05;;;;;;;7.30;6.20;;;24.30;80.80;;;;;;4861577;29;20533;-84
2023/08/16 02:22:34;;;;;;;6.70;5.67;;;24.20;80.80;;;;;;4861244;29;20465;-84
2023/08/16 02:25:11;;;;;;;6.50;5.97;;;24.20;80.90;;;;;;4860855;29;20467;-84
2023/08/16 02:27:40;;;;;;;7.20;6.60;;;24.10;80.90;;;;;;4860254;29;20508;-84
2023/08/16 02:30:09;;;;;;;6.80;6.30;;;24.10;80.80;;;;;;4860054;29;20493;-84
2023/08/16 02:32:39;;;;;;;5.93;5.50;;;24.10;80.80;;;;;;4858608;29;20520;-85
2023/08/16 02:35:09;;;;;;;7.53;6.80;;;24.00;81.30;;;;;;4849711;29;20477;-84
2023/08/16 02:37:37;;;;;;;6.10;5.70;;;24.00;81.40;;;;;;4858173;29;20475;-85
2023/08/16 02:40:08;;;;;;;6.40;5.90;;;24.00;81.20;;;;;;4853396;29;20490;-84
2023/08/16 02:42:38;;;;;;;6.03;5.53;;;24.10;81.00;;;;;;4858653;29;20473;-84
2023/08/16 02:45:07;;;;;;;6.50;5.90;;;24.20;80.50;;;;;;4855409;29;20474;-84
2023/08/16 02:47:35;;;;;;;6.30;5.83;;;24.10;80.20;;;;;;4860505;29;20823;-84
2023/08/16 02:50:08;;;;;;;6.10;5.60;;;24.10;80.40;;;;;;4855652;29;20496;-84
2023/08/16 02:52:36;;;;;;;6.77;6.20;;;24.10;80.30;;;;;;4858986;29;20870;-84
2023/08/16 02:55:05;;;;;;;6.37;5.97;;;24.00;80.50;;;;;;4860043;29;20624;-84
2023/08/16 02:57:34;;;;;;;7.50;6.07;;;24.00;80.40;;;;;;4859783;29;20832;-84
2023/08/16 03:00:06;;;;;;;6.17;5.67;;;24.00;80.40;;;;;;4861246;29;20517;-84
2023/08/16 03:02:34;;;;;;;7.07;6.37;;;24.00;80.50;;;;;;4855678;29;20474;-84
2023/08/16 03:05:03;;;;;;;5.90;5.40;;;24.00;80.40;;;;;;4860035;29;20992;-84
2023/08/16 03:07:34;;;;;;;8.30;6.40;;;23.80;80.40;;;;;;4854374;29;20841;-84
2023/08/16 03:10:02;;;;;;;6.37;5.97;;;23.80;80.60;;;;;;4854320;29;20466;-84
2023/08/16 03:12:31;;;;;;;6.70;6.20;;;23.80;80.50;;;;;;4860893;29;20461;-84
2023/08/16 03:15:01;;;;;;;6.33;5.83;;;23.80;80.70;;;;;;4844995;29;20570;-85
2023/08/16 03:17:29;;;;;;;6.57;5.97;;;23.70;80.80;;;;;;4849037;29;20989;-84
2023/08/16 03:19:59;;;;;;;6.30;5.70;;;23.70;80.80;;;;;;4857617;29;20464;-84
2023/08/16 03:22:28;;;;;;;5.40;5.00;;;23.80;80.80;;;;;;4848313;29;20513;-84
2023/08/16 03:24:57;;;;;;;7.67;7.07;;;23.80;80.70;;;;;;4858103;29;20475;-84
2023/08/16 03:27:26;;;;;;;6.40;5.90;;;23.70;80.60;;;;;;4824391;29;1125825;-84
2023/08/16 03:29:54;;;;;;;7.17;6.47;;;23.50;81.00;;;;;;4853935;29;20480;-84
2023/08/16 03:32:23;;;;;;;7.20;6.50;;;23.50;81.40;;;;;;4855405;29;20474;-84
2023/08/16 03:34:51;;;;;;;6.00;5.60;;;23.60;81.10;;;;;;4861559;29;20445;-84
2023/08/16 03:37:19;;;;;;;5.50;5.10;;;23.70;81.10;;;;;;4857651;29;20472;-84
2023/08/16 03:39:48;;;;;;;6.40;5.80;;;23.70;80.80;;;;;;4860587;29;20472;-84
2023/08/16 03:42:17;;;;;;;7.00;6.47;;;23.70;80.80;;;;;;4861056;29;20485;-84
2023/08/16 03:44:46;;;;;;;7.23;6.63;;;23.70;80.70;;;;;;4861060;29;20977;-84
2023/08/16 03:47:14;;;;;;;6.47;5.97;;;23.70;80.70;;;;;;4859589;29;20476;-84
2023/08/16 03:49:44;;;;;;;5.90;5.50;;;23.70;81.00;;;;;;4861271;29;20447;-84
2023/08/16 03:52:13;;;;;;;6.47;5.97;;;23.70;81.20;;;;;;4859802;29;20479;-84
2023/08/16 03:54:41;;;;;;;7.47;6.73;;;23.70;81.10;;;;;;4861292;29;20538;-84
2023/08/16 03:57:12;;;;;;;6.50;6.00;;;23.70;81.10;;;;;;4860842;29;20466;-85
2023/08/16 03:59:41;;;;;;;6.90;6.30;;;23.60;81.30;;;;;;4842444;29;20450;-85
2023/08/16 04:02:10;;;;;;;6.50;5.87;;;23.70;81.20;;;;;;4859901;29;20486;-85
2023/08/16 04:04:38;;;;;;;5.57;5.23;;;23.70;80.90;;;;;;4857934;29;20797;-84
2023/08/16 04:07:06;;;;;;;6.90;6.30;;;23.70;80.90;;;;;;4858561;29;20472;-84
2023/08/16 04:09:37;;;;;;;7.13;6.60;;;23.80;80.70;;;;;;4864068;29;20548;-84
2023/08/16 04:12:06;;;;;;;5.90;5.40;;;23.80;80.70;;;;;;4853312;29;20492;-84
2023/08/16 04:14:37;;;;;;;6.63;6.13;;;23.80;80.50;;;;;;4854652;29;20471;-84
2023/08/16 04:17:07;;;;;;;6.40;5.90;;;23.80;80.10;;;;;;4851505;29;20466;-84
2023/08/16 04:19:35;;;;;;;7.20;6.60;;;23.60;80.20;;;;;;4857342;29;20467;-83
2023/08/16 04:22:03;;;;;;;6.10;5.50;;;23.40;80.60;;;;;;4856788;29;21010;-84
2023/08/16 04:24:31;;;;;;;5.83;5.30;;;23.30;80.90;;;;;;4859764;29;20449;-84
2023/08/16 04:27:00;;;;;;;6.17;5.60;;;23.30;80.70;;;;;;4858708;29;20551;-85
2023/08/16 04:29:29;;;;;;;5.70;5.30;;;23.30;80.50;;;;;;4856068;29;20571;-84
2023/08/16 04:31:57;;;;;;;5.43;5.03;;;23.20;80.90;;;;;;4850096;29;20477;-85
2023/08/16 04:34:29;;;;;;;6.90;6.10;;;23.20;81.10;;;;;;4857389;29;20466;-84
2023/08/16 04:36:57;;;;;;;6.20;5.60;;;23.10;81.50;;;;;;4852635;29;20844;-84
2023/08/16 04:39:25;;;;;;;6.67;6.03;;;23.00;81.40;;;;;;4856321;29;20462;-84
2023/08/16 04:41:53;;;;;;;6.47;5.97;;;23.10;81.90;;;;;;4854497;29;20821;-84
2023/08/16 04:44:22;;;;;;;6.00;5.40;;;23.10;81.90;;;;;;4858157;29;21029;-84
2023/08/16 04:46:50;;;;;;;6.27;5.77;;;23.10;81.90;;;;;;4854553;29;20488;-85
2023/08/16 04:49:19;;;;;;;5.10;4.60;;;23.30;81.70;;;;;;4862100;29;20467;-84
2023/08/16 04:51:49;;;;;;;6.70;6.20;;;23.40;81.50;;;;;;4860164;29;20452;-84
2023/08/16 04:54:17;;;;;;;7.70;7.10;;;23.50;81.30;;;;;;4856875;29;20838;-84
2023/08/16 04:56:48;;;;;;;6.73;6.20;;;23.40;81.50;;;;;;4858860;29;20980;-84
2023/08/16 04:59:18;;;;;;;6.90;6.30;;;23.40;81.70;;;;;;4851258;29;20478;-84
2023/08/16 05:01:46;;;;;;;6.50;6.00;;;23.30;82.00;;;;;;4845602;29;20486;-84
2023/08/16 05:04:15;;;;;;;6.10;5.70;;;23.20;81.90;;;;;;4848632;29;21031;-84
2023/08/16 05:06:44;;;;;;;6.67;6.03;;;23.20;82.10;;;;;;4858174;29;20465;-84
2023/08/16 05:09:14;;;;;;;7.17;6.60;;;23.30;82.20;;;;;;4857600;29;20472;-83
2023/08/16 05:11:42;;;;;;;8.10;7.40;;;23.30;81.90;;;;;;4858568;29;20938;-84
2023/08/16 05:14:11;;;;;;;6.47;5.97;;;23.20;82.50;;;;;;4847783;29;20481;-84
2023/08/16 05:16:39;;;;;;;7.00;6.37;;;23.30;82.70;;;;;;4843263;29;20951;-84
2023/08/16 05:19:08;;;;;;;7.10;6.53;;;23.30;82.50;;;;;;4856810;29;20466;-85
2023/08/16 05:21:36;;;;;;;7.93;7.23;;;23.40;82.40;;;;;;4864213;29;20490;-84
2023/08/16 05:24:05;;;;;;;5.70;5.30;;;23.30;82.70;;;;;;4849989;29;20464;-85
2023/08/16 05:26:35;;;;;;;6.30;5.77;;;23.40;82.70;;;;;;4852374;29;20480;-84
2023/08/16 05:29:03;;;;;;;6.83;6.37;;;23.50;82.50;;;;;;4851532;29;20491;-84
2023/08/16 05:31:31;;;;;;;6.80;6.10;;;23.60;82.50;;;;;;4850631;29;20959;-84
2023/08/16 05:33:59;;;;;;;7.00;6.40;;;23.60;82.60;;;;;;4853195;29;21034;-84
2023/08/16 05:36:29;;;;;;;6.70;6.20;;;23.70;82.70;;;;;;4856113;29;20462;-84
2023/08/16 05:39:02;;;;;;;8.57;6.10;;;23.80;82.50;;;;;;4845862;29;20461;-84
2023/08/16 05:41:31;;;;;;;7.87;7.17;;;23.90;82.40;;;;;;4858479;29;20524;-84
2023/08/16 05:44:01;;;;;;;7.87;7.17;;;23.90;82.50;;;;;;4853562;29;20500;-84
2023/08/16 05:46:29;;;;;;;8.20;7.50;;;24.00;82.40;;;;;;4843244;29;20537;-84
2023/08/16 05:49:00;;;;;;;7.93;7.33;;;24.00;82.70;;;;;;4854142;29;20478;-84
2023/08/16 05:51:28;;;;;;;11.77;9.33;;;24.00;82.50;;;;;;4859869;29;20910;-84
2023/08/16 05:53:57;;;;;;;7.27;6.63;;;24.10;82.10;;;;;;4858162;29;20475;-84
2023/08/16 05:56:25;;;;;;;7.13;6.43;;;24.20;82.10;;;;;;4858612;29;20470;-86
2023/08/16 05:58:55;;;;;;;8.70;8.10;;;24.20;82.40;;;;;;4844817;29;20470;-84
2023/08/16 06:01:25;;;;;;;8.17;7.57;;;24.10;82.40;;;;;;4844389;29;20474;-84
2023/08/16 06:03:53;;;;;;;9.40;8.60;;;24.20;82.30;;;;;;4841084;29;20502;-84
2023/08/16 06:06:22;;;;;;;7.63;6.93;;;24.30;82.00;;;;;;4841062;29;20443;-84
2023/08/16 06:08:50;;;;;;;8.63;7.77;;;24.40;82.00;;;;;;4855438;29;20478;-84
2023/08/16 06:11:18;;;;;;;8.40;7.70;;;24.40;81.70;;;;;;4858355;29;20469;-85
2023/08/16 06:13:46;;;;;;;8.73;7.83;;;24.60;81.50;;;;;;4856570;29;20456;-84
2023/08/16 06:16:15;;;;;;;8.43;7.83;;;24.70;81.30;;;;;;4858032;29;20450;-84
2023/08/16 06:18:45;;;;;;;8.30;7.60;;;24.70;80.80;;;;;;4853963;29;20644;-85
2023/08/16 06:21:13;;;;;;;6.87;5.67;;;24.80;80.90;;;;;;4855631;29;20464;-85
2023/08/16 06:23:42;;;;;;;6.60;5.57;;;25.00;80.40;;;;;;4851948;29;20509;-85
2023/08/16 06:26:11;;;;;;;9.40;8.60;;;25.30;80.40;;;;;;4853674;29;20819;-86
2023/08/16 06:28:39;;;;;;;5.93;5.43;;;25.60;79.50;;;;;;4854918;29;20490;-85
2023/08/16 06:31:07;;;;;;;7.20;5.77;;;25.70;79.30;;;;;;4853963;29;20475;-84
2023/08/16 06:33:37;;;;;;;8.20;7.27;;;25.90;79.00;;;;;;4854223;29;20464;-85
2023/08/16 06:36:06;;;;;;;6.70;5.80;;;26.00;78.10;;;;;;4854005;29;20562;-85
2023/08/16 06:38:35;;;;;;;7.70;6.10;;;26.10;78.20;;;;;;4853629;29;20463;-85
2023/08/16 06:41:03;;;;;;;9.43;8.20;;;26.20;78.20;;;;;;4858484;29;20447;-85
2023/08/16 06:43:31;;;;;;;7.90;6.20;;;26.40;77.80;;;;;;4858053;29;20491;-85
2023/08/16 06:46:00;;;;;;;6.03;5.50;;;26.40;77.30;;;;;;4858347;29;20448;-85
2023/08/16 06:48:28;;;;;;;6.23;5.63;;;26.60;77.10;;;;;;4857321;29;20905;-85
2023/08/16 06:50:56;;;;;;;6.63;6.03;;;26.60;77.00;;;;;;4857272;29;20471;-85
2023/08/16 06:53:27;;;;;;;10.20;8.10;;;26.80;76.90;;;;;;4844491;29;20478;-85
2023/08/16 06:55:55;;;;;;;6.60;6.10;;;26.90;76.60;;;;;;4848265;29;20451;-85
2023/08/16 06:58:24;;;;;;;7.50;6.90;;;27.00;76.30;;;;;;4857582;29;20482;-85
2023/08/16 07:00:54;;;;;;;11.63;10.33;;;27.10;75.90;;;;;;4857693;29;21034;-86
2023/08/16 07:03:22;;;;;;;7.80;6.50;;;27.10;75.70;;;;;;4855469;29;20485;-85
2023/08/16 07:05:52;;;;;;;10.27;7.00;;;27.10;76.00;;;;;;4853970;29;20567;-85
2023/08/16 07:08:20;;;;;;;7.27;6.17;;;27.00;76.10;;;;;;4854829;29;20572;-86
2023/08/16 07:10:50;;;;;;;6.93;6.30;;;27.10;75.90;;;;;;4854368;29;20529;-85
2023/08/16 07:13:18;;;;;;;7.40;6.80;;;27.10;76.00;;;;;;4851906;29;21029;-85
2023/08/16 07:15:46;;;;;;;6.17;5.67;;;27.20;75.70;;;;;;4853979;29;20559;-83
2023/08/16 07:18:14;;;;;;;8.53;7.57;;;27.20;75.50;;;;;;4860538;29;20472;-85
2023/08/16 07:20:42;;;;;;;8.70;6.80;;;27.20;75.10;;;;;;4851783;29;20473;-85
2023/08/16 07:23:11;;;;;;;10.20;9.20;;;27.30;75.30;;;;;;4850635;29;20541;-85
2023/08/16 07:25:39;;;;;;;5.90;5.47;;;27.30;75.50;;;;;;4853041;29;20462;-85
2023/08/16 07:28:09;;;;;;;7.30;6.73;;;27.20;75.20;;;;;;4859291;29;20933;-85
2023/08/16 07:30:37;;;;;;;7.77;7.17;;;27.20;75.20;;;;;;4863724;29;20470;-85
2023/08/16 07:33:05;;;;;;;6.70;6.20;;;27.30;75.40;;;;;;4849871;29;20879;-86
2023/08/16 07:35:34;;;;;;;7.10;6.40;;;27.40;75.20;;;;;;4854438;29;20467;-85
2023/08/16 07:38:04;;;;;;;8.50;5.63;;;27.50;75.20;;;;;;4854633;29;21036;-85
2023/08/16 07:40:32;;;;;;;7.13;6.63;;;27.50;74.80;;;;;;4856417;29;20458;-86
2023/08/16 07:43:00;;;;;;;7.13;6.43;;;27.60;74.80;;;;;;4855482;29;20604;-85
2023/08/16 07:45:30;;;;;;;10.30;9.40;;;27.60;75.00;;;;;;4850670;29;20999;-85
2023/08/16 07:47:58;;;;;;;7.57;6.90;;;27.60;75.00;;;;;;4855287;29;20479;-86
2023/08/16 07:50:26;;;;;;;7.37;6.77;;;27.60;74.60;;;;;;4854695;29;20491;-84
2023/08/16 07:52:54;;;;;;;6.63;6.07;;;27.60;74.60;;;;;;4854695;29;20455;-85
2023/08/16 07:55:29;;;;;;;6.60;6.10;;;27.60;74.70;;;;;;4852025;29;20474;-85
2023/08/16 07:57:57;;;;;;;7.13;6.47;;;27.70;74.70;;;;;;4851338;29;20466;-86
2023/08/16 08:00:25;;;;;;;6.80;5.80;;;27.70;74.50;;;;;;4852350;29;20465;-85
2023/08/16 08:02:55;;;;;;;6.43;5.83;;;27.70;74.60;;;;;;4854311;29;20490;-85
2023/08/16 08:05:29;;;;;;;6.60;6.10;;;27.70;74.70;;;;;;4856063;29;20467;-84
2023/08/16 08:07:57;;;;;;;6.20;5.77;;;27.70;74.70;;;;;;4852171;29;20487;-85
2023/08/16 08:10:25;;;;;;;7.67;6.97;;;27.70;74.80;;;;;;4855643;29;20525;-85
2023/08/16 08:12:53;;;;;;;6.47;5.10;;;27.70;74.70;;;;;;4859714;29;20463;-85
2023/08/16 08:15:21;;;;;;;7.53;6.83;;;27.70;74.70;;;;;;4860009;29;20483;-86
2023/08/16 08:17:50;;;;;;;7.03;6.53;;;27.70;74.70;;;;;;4853780;29;20531;-85
2023/08/16 08:20:32;;;;;;;6.70;6.20;;;27.70;74.80;;;;;;4848802;29;20466;-85
2023/08/16 08:23:00;;;;;;;7.23;6.63;;;27.70;74.70;;;;;;4854142;29;20483;-84
2023/08/16 08:25:29;;;;;;;7.27;6.70;;;27.70;74.80;;;;;;4852273;29;20472;-85
2023/08/16 08:27:58;;;;;;;7.03;6.50;;;27.70;74.80;;;;;;4852762;29;20506;-85
2023/08/16 08:30:26;;;;;;;7.40;6.70;;;27.80;74.80;;;;;;4853179;29;20803;-85
2023/08/16 08:32:57;;;;;;;6.20;5.73;;;27.80;74.60;;;;;;4851186;29;20537;-85
2023/08/16 08:35:27;;;;;;;7.33;6.80;;;27.80;74.50;;;;;;4856557;29;20477;-87
2023/08/16 08:37:55;;;;;;;6.30;5.90;;;27.80;74.50;;;;;;4851980;29;20466;-86
2023/08/16 08:40:24;;;;;;;6.80;6.20;;;27.80;74.60;;;;;;4855136;29;20903;-87
2023/08/16 08:42:52;;;;;;;7.20;6.70;;;27.90;74.50;;;;;;4853745;29;20473;-87
2023/08/16 08:45:21;;;;;;;7.03;6.53;;;27.90;74.40;;;;;;4853316;29;20542;-85
2023/08/16 08:47:50;;;;;;;9.37;7.33;;;27.90;74.50;;;;;;4853815;29;20464;-87
2023/08/16 08:50:18;;;;;;;6.33;5.93;;;27.90;74.50;;;;;;4854511;29;20454;-86
2023/08/16 08:52:51;;;;;;;7.90;7.20;;;27.90;74.50;;;;;;4852798;29;20538;-86
2023/08/16 08:55:21;;;;;;;6.50;5.90;;;27.90;74.50;;;;;;4854899;29;20562;-85
2023/08/16 08:57:51;;;;;;;6.50;5.90;;;27.90;74.50;;;;;;4852851;29;21002;-86
2023/08/16 09:00:20;;;;;;;8.20;6.07;;;27.90;74.50;;;;;;4853075;29;20565;-84
2023/08/16 09:02:50;;;;;;;7.60;6.87;;;28.00;74.40;;;;;;4853779;29;20474;-86
2023/08/16 09:05:22;;;;;;;6.60;6.20;;;27.90;74.50;;;;;;4852320;29;20522;-87
2023/08/16 09:07:53;;;;;;;5.83;5.43;;;28.00;74.40;;;;;;4851592;29;20483;-87
2023/08/16 09:10:21;;;;;;;7.23;6.70;;;28.00;74.40;;;;;;4854413;29;20559;-86
2023/08/16 09:12:50;;;;;;;7.30;6.80;;;28.00;74.30;;;;;;4853389;29;20473;-88
2023/08/16 09:15:19;;;;;;;6.63;6.13;;;28.10;74.30;;;;;;4853188;29;20554;-89
2023/08/16 09:17:50;;;;;;;7.97;7.13;;;28.10;74.30;;;;;;4850239;29;20491;-87
2023/08/16 09:20:19;;;;;;;7.00;6.50;;;28.10;74.30;;;;;;4850115;29;21014;-86
2023/08/16 09:22:49;;;;;;;7.57;6.97;;;28.10;74.20;;;;;;4853725;29;20524;-86
2023/08/16 09:25:19;;;;;;;6.80;6.30;;;28.10;74.10;;;;;;4851814;29;20567;-85
2023/08/16 09:27:47;;;;;;;8.13;7.50;;;28.10;74.10;;;;;;4853845;29;20908;-86
2023/08/16 09:30:16;;;;;;;7.03;6.53;;;28.20;74.40;;;;;;4852820;29;20527;-85
2023/08/16 09:32:45;;;;;;;7.93;7.13;;;28.20;74.10;;;;;;4854315;29;20469;-86
2023/08/16 09:35:14;;;;;;;7.50;7.00;;;28.20;73.60;;;;;;4852036;29;20981;-88
2023/08/16 09:37:44;;;;;;;7.17;6.50;;;28.30;73.90;;;;;;4850704;29;20524;-86
2023/08/16 09:40:12;;;;;;;7.07;6.57;;;28.30;73.80;;;;;;4848389;29;20546;-84
2023/08/16 09:42:42;;;;;;;6.63;5.93;;;28.30;73.50;;;;;;4850508;29;20552;-85
2023/08/16 09:45:11;;;;;;;9.47;8.77;;;28.30;73.30;;;;;;4852905;29;20485;-84
2023/08/16 09:47:43;;;;;;;7.40;6.80;;;28.30;72.40;;;;;;4855069;29;20466;-85
2023/08/16 09:50:28;;;;;;;6.87;6.37;;;28.30;72.10;;;;;;4848643;29;21020;-84
2023/08/16 09:52:58;;;;;;;7.50;6.33;;;28.20;73.10;;;;;;4858671;29;20484;-83
2023/08/16 09:55:28;;;;;;;6.00;5.60;;;28.20;73.40;;;;;;4840011;29;20486;-85
2023/08/16 09:57:58;;;;;;;7.13;6.53;;;28.20;73.40;;;;;;4850510;29;20581;-84
2023/08/16 10:00:27;;;;;;;12.27;11.00;;;28.20;73.40;;;;;;4856684;29;20524;-85
2023/08/16 10:02:56;;;;;;;7.80;6.80;;;28.20;73.20;;;;;;4854977;29;20494;-84
2023/08/16 10:05:26;;;;;;;6.20;5.80;;;28.30;73.30;;;;;;4849785;29;20492;-85
2023/08/16 10:08:14;;;;;;;18.20;9.93;;;28.30;72.70;;;;;;4849919;29;20461;-84
2023/08/16 10:10:43;;;;;;;7.63;6.93;;;28.30;73.00;;;;;;4843544;29;20930;-86
2023/08/16 10:13:14;;;;;;;7.17;6.47;;;28.30;72.30;;;;;;4850700;29;20519;-84
2023/08/16 10:15:46;;;;;;;7.07;6.47;;;28.30;72.40;;;;;;4861571;29;26676;-84
2023/08/16 10:18:14;;;;;;;10.17;9.10;;;28.40;72.40;;;;;;4851825;29;20473;-84
2023/08/16 10:20:46;;;;;;;9.27;7.93;;;28.40;72.60;;;;;;4849442;29;20474;-84
2023/08/16 10:23:19;;;;;;;7.87;7.13;;;28.40;72.10;;;;;;4845723;29;20526;-84
2023/08/16 10:25:49;;;;;;;7.27;6.67;;;28.40;72.40;;;;;;4846662;29;20486;-84
2023/08/16 10:28:21;;;;;;;7.90;7.20;;;28.40;72.40;;;;;;4853955;29;21378;-84
2023/08/16 10:30:54;;;;;;;7.43;6.83;;;28.40;72.50;;;;;;4853807;29;20471;-85
2023/08/16 10:33:28;;;;;;;6.10;5.60;;;28.40;72.60;;;;;;4842714;29;20550;-84
2023/08/16 10:35:57;;;;;;;6.90;6.30;;;28.40;72.50;;;;;;4857049;29;20890;-84
2023/08/16 10:38:35;;;;;;;7.50;6.27;;;28.40;72.40;;;;;;4856936;29;20879;-84
2023/08/16 10:41:11;;;;;;;6.33;5.83;;;28.50;72.30;;;;;;4860662;29;20494;-84
2023/08/16 10:43:48;;;;;;;6.07;5.57;;;28.50;72.30;;;;;;4847873;29;21035;-84
2023/08/16 10:46:32;;;;;;;6.83;6.30;;;28.50;72.30;;;;;;4857545;29;20490;-84
2023/08/16 10:49:02;;;;;;;6.50;5.90;;;28.50;72.10;;;;;;4856521;29;20483;-84
2023/08/16 10:51:31;;;;;;;6.43;5.90;;;28.50;72.20;;;;;;4857004;29;20554;-85
2023/08/16 10:54:00;;;;;;;6.90;4.70;;;28.50;72.10;;;;;;4857809;29;20459;-84
2023/08/16 10:56:43;;;;;;;6.17;5.23;;;28.60;71.70;;;;;;4861977;29;20465;-84
2023/08/16 10:59:13;;;;;;;5.10;4.70;;;28.60;71.80;;;;;;4858351;29;20535;-84
2023/08/16 11:01:49;;;;;;;5.90;5.50;;;28.70;69.20;;;;;;4859806;29;20571;-84
2023/08/16 11:04:17;;;;;;;6.13;5.60;;;28.70;70.90;;;;;;4860812;29;20973;-85
2023/08/16 11:06:46;;;;;;;5.30;4.90;;;28.70;70.90;;;;;;4858274;29;20470;-84
2023/08/16 11:09:30;;;;;;;5.73;5.33;;;28.70;70.80;;;;;;4851271;29;20490;-85
2023/08/16 11:12:02;;;;;;;5.77;5.27;;;28.70;70.80;;;;;;4859482;29;20498;-86
2023/08/16 11:14:33;;;;;;;5.40;5.00;;;28.70;70.40;;;;;;4853898;29;20478;-86
2023/08/16 11:17:02;;;;;;;5.37;4.97;;;28.70;70.30;;;;;;4859822;29;20466;-86
2023/08/16 11:19:31;;;;;;;6.43;5.83;;;28.70;70.50;;;;;;4856276;29;20471;-85
2023/08/16 11:22:02;;;;;;;6.57;5.97;;;28.80;70.50;;;;;;4863304;29;20462;-83
2023/08/16 11:24:32;;;;;;;5.60;5.20;;;28.80;70.30;;;;;;4862075;29;20537;-85
2023/08/16 11:27:02;;;;;;;5.80;5.10;;;28.90;70.20;;;;;;4859486;29;20476;-86
2023/08/16 11:29:32;;;;;;;5.30;4.90;;;29.00;69.90;;;;;;4864148;29;20465;-85
2023/08/16 11:32:00;;;;;;;5.80;5.40;;;29.10;69.80;;;;;;4863205;29;20533;-85
2023/08/16 11:34:32;;;;;;;4.37;4.07;;;29.10;70.10;;;;;;4861494;29;20478;-86
2023/08/16 11:37:00;;;;;;;4.50;4.20;;;29.20;69.90;;;;;;4851652;29;20489;-86
2023/08/16 11:39:29;;;;;;;4.93;4.63;;;29.30;69.90;;;;;;4856914;29;21422;-86
2023/08/16 11:41:57;;;;;;;5.30;4.90;;;29.50;69.60;;;;;;4860143;29;20474;-85
2023/08/16 11:44:27;;;;;;;4.93;4.63;;;29.60;68.90;;;;;;4862868;29;20476;-84
2023/08/16 11:46:56;;;;;;;4.73;4.37;;;29.80;68.80;;;;;;4865639;29;20956;-86
2023/08/16 11:49:25;;;;;;;4.70;4.40;;;30.00;68.40;;;;;;4864098;29;20499;-85
2023/08/16 11:51:53;;;;;;;5.27;4.90;;;30.20;67.70;;;;;;4862705;29;20547;-84
2023/08/16 11:54:22;;;;;;;4.57;4.27;;;30.40;67.20;;;;;;4863322;29;20460;-85
2023/08/16 11:56:51;;;;;;;5.10;4.60;;;30.60;66.80;;;;;;4861332;29;20477;-85
2023/08/16 11:59:26;;;;;;;4.37;4.07;;;30.70;66.40;;;;;;4857306;29;20698;-86
2023/08/16 12:01:56;;;;;;;5.83;4.30;;;30.90;66.20;;;;;;4859822;29;20483;-87
2023/08/16 12:04:24;;;;;;;4.37;4.03;;;30.90;65.90;;;;;;4859112;29;20476;-86
2023/08/16 12:06:53;;;;;;;4.67;4.40;;;31.00;65.70;;;;;;4855537;29;20484;-86
2023/08/16 12:09:21;;;;;;;4.50;4.10;;;31.10;65.60;;;;;;4865429;29;20903;-86
2023/08/16 12:11:52;;;;;;;4.03;3.83;;;31.10;65.40;;;;;;4859761;29;20578;-84
2023/08/16 12:14:20;;;;;;;4.10;3.80;;;31.10;65.40;;;;;;4855422;29;20968;-85
2023/08/16 12:16:48;;;;;;;4.60;4.30;;;31.20;65.20;;;;;;4860330;29;20495;-85
2023/08/16 12:19:21;;;;;;;4.30;4.00;;;31.20;65.20;;;;;;4858959;29;20542;-85
2023/08/16 12:21:50;;;;;;;4.70;4.40;;;31.20;65.00;;;;;;4855597;29;20464;-85
2023/08/16 12:24:18;;;;;;;7.47;4.50;;;31.20;64.80;;;;;;4862068;29;20550;-86
2023/08/16 12:26:47;;;;;;;4.10;3.80;;;31.30;64.90;;;;;;4857391;29;20480;-85
2023/08/16 12:29:17;;;;;;;4.50;4.10;;;31.30;64.80;;;;;;4853008;29;20532;-85
2023/08/16 12:31:45;;;;;;;4.50;4.10;;;31.30;64.80;;;;;;4862475;29;20464;-85
2023/08/16 12:34:13;;;;;;;4.10;3.90;;;31.30;64.90;;;;;;4864115;29;20470;-84
2023/08/16 12:36:43;;;;;;;4.40;4.00;;;31.30;64.70;;;;;;4867653;29;20460;-84
2023/08/16 12:39:11;;;;;;;5.00;3.70;;;31.40;64.60;;;;;;4867139;29;20451;-84
2023/08/16 12:41:39;;;;;;;4.57;4.17;;;31.40;64.40;;;;;;4858137;29;20485;-84
2023/08/16 12:44:07;;;;;;;5.13;4.57;;;31.40;64.70;;;;;;4866723;29;21044;-85
2023/08/16 12:46:35;;;;;;;5.33;4.83;;;31.40;64.40;;;;;;4857570;29;21064;-85
2023/08/16 12:49:04;;;;;;;4.23;3.93;;;31.40;63.90;;;;;;4866256;29;20971;-86
2023/08/16 12:51:32;;;;;;;6.17;4.23;;;31.30;64.50;;;;;;4859745;29;20472;-85
2023/08/16 12:54:01;;;;;;;4.10;3.80;;;31.20;64.60;;;;;;4866822;29;20455;-86
2023/08/16 12:56:30;;;;;;;3.73;3.53;;;31.20;64.70;;;;;;4867205;29;20483;-86